Time;durP1;ratioP1;P1;durP2;ratioP2;P2;SDS_P1;SDS_P2;PMS_P1;PMS_P2;Temp;Humidity;BMP_temperature;BMP_pressure;BME280_temperature;BME280_humidity;BME280_pressure;Samples;Min_cycle;Max_cycle;Signal;HPM_P1;HPM_P2
2022/09/02 00:01:35;;;;;;;2.67;1.70;;;21.20;91.60;;;;;;5115846;27;20216;-65
2022/09/02 00:04:06;;;;;;;4.30;1.80;;;21.20;91.70;;;;;;5121119;27;20204;-65
2022/09/02 00:06:34;;;;;;;3.27;1.90;;;21.20;91.80;;;;;;5106904;28;20216;-66
2022/09/02 00:09:02;;;;;;;2.73;1.83;;;21.20;91.70;;;;;;5117340;27;20195;-65
2022/09/02 00:11:32;;;;;;;4.77;2.00;;;21.20;91.50;;;;;;5116335;27;20196;-65
2022/09/02 00:14:03;;;;;;;3.43;2.20;;;21.10;91.50;;;;;;5097887;28;20795;-65
2022/09/02 00:16:32;;;;;;;4.23;2.20;;;21.10;91.50;;;;;;5086037;28;20216;-65
2022/09/02 00:19:02;;;;;;;5.27;2.03;;;21.10;91.70;;;;;;5117246;27;20247;-66
2022/09/02 00:21:33;;;;;;;2.63;1.73;;;21.00;91.80;;;;;;5117023;27;20630;-65
2022/09/02 00:24:01;;;;;;;4.43;2.20;;;21.00;92.00;;;;;;5096359;27;20209;-65
2022/09/02 00:26:28;;;;;;;8.50;2.93;;;21.00;92.10;;;;;;5120168;27;20618;-65
2022/09/02 00:28:56;;;;;;;6.20;2.40;;;21.00;92.20;;;;;;5118740;27;20203;-65
2022/09/02 00:31:26;;;;;;;7.57;2.17;;;21.00;92.20;;;;;;5099279;28;20203;-65
2022/09/02 00:33:54;;;;;;;2.70;2.10;;;21.00;92.30;;;;;;5118240;28;20195;-65
2022/09/02 00:36:21;;;;;;;4.67;2.03;;;21.00;92.30;;;;;;5117203;27;20536;-65
2022/09/02 00:38:48;;;;;;;5.37;2.40;;;21.00;92.40;;;;;;5111563;28;20213;-65
2022/09/02 00:41:18;;;;;;;5.57;2.60;;;20.90;92.50;;;;;;5115846;28;20209;-66
2022/09/02 00:43:50;;;;;;;3.30;2.37;;;20.90;92.50;;;;;;5098153;28;20200;-65
2022/09/02 00:46:20;;;;;;;4.10;2.17;;;20.90;92.60;;;;;;5115551;28;20264;-65
2022/09/02 00:48:53;;;;;;;3.13;2.27;;;20.90;92.60;;;;;;5101702;28;20687;-65
2022/09/02 00:51:21;;;;;;;2.77;2.30;;;20.90;92.70;;;;;;5099567;28;20232;-65
2022/09/02 00:53:49;;;;;;;5.70;2.77;;;20.90;92.60;;;;;;5112483;28;20636;-65
2022/09/02 00:56:21;;;;;;;5.13;2.37;;;20.80;92.50;;;;;;5103575;28;20198;-65
2022/09/02 00:58:50;;;;;;;4.97;2.40;;;20.80;92.50;;;;;;5100117;28;20222;-65
2022/09/02 01:01:18;;;;;;;2.90;2.53;;;20.80;92.50;;;;;;5099323;28;20549;-65
2022/09/02 01:03:45;;;;;;;2.70;2.00;;;20.80;92.60;;;;;;5094599;28;20211;-65
2022/09/02 01:06:14;;;;;;;3.60;2.40;;;20.70;92.60;;;;;;5098838;28;20203;-65
2022/09/02 01:08:50;;;;;;;3.90;2.30;;;20.70;92.70;;;;;;5119492;28;20212;-65
2022/09/02 01:11:20;;;;;;;2.77;2.23;;;20.70;92.60;;;;;;5122234;28;20211;-65
2022/09/02 01:13:47;;;;;;;10.07;2.63;;;20.70;92.50;;;;;;5124452;28;20257;-65
2022/09/02 01:16:29;;;;;;;7.90;2.60;;;20.70;92.50;;;;;;5099720;28;20282;-65
2022/09/02 01:19:00;;;;;;;3.40;2.77;;;20.70;92.50;;;;;;5100742;28;20707;-65
2022/09/02 01:21:27;;;;;;;5.07;2.90;;;20.60;92.50;;;;;;5105928;28;20241;-65
2022/09/02 01:23:55;;;;;;;4.40;2.70;;;20.60;92.60;;;;;;5101073;28;20199;-65
2022/09/02 01:26:22;;;;;;;5.37;2.80;;;20.60;92.70;;;;;;5098908;28;20222;-65
2022/09/02 01:28:50;;;;;;;3.73;2.60;;;20.50;92.70;;;;;;5098086;28;20215;-65
2022/09/02 01:31:18;;;;;;;3.87;3.23;;;20.50;92.80;;;;;;5087604;28;20528;-65
2022/09/02 01:33:45;;;;;;;4.67;3.00;;;20.50;92.90;;;;;;5080720;28;20233;-65
2022/09/02 01:36:13;;;;;;;4.73;3.43;;;20.50;93.00;;;;;;5100662;28;20294;-65
2022/09/02 01:38:40;;;;;;;7.70;3.10;;;20.50;93.00;;;;;;5103149;28;20202;-65
2022/09/02 01:41:07;;;;;;;3.60;3.30;;;20.50;93.10;;;;;;5117580;28;20202;-65
2022/09/02 01:43:35;;;;;;;4.83;3.60;;;20.60;93.20;;;;;;5101483;28;20200;-65
2022/09/02 01:46:03;;;;;;;3.57;3.27;;;20.60;93.20;;;;;;5091614;28;20207;-65
2022/09/02 01:48:30;;;;;;;5.53;3.40;;;20.60;93.20;;;;;;5100717;27;20279;-65
2022/09/02 01:51:02;;;;;;;2.73;2.53;;;20.60;93.20;;;;;;5102869;27;20513;-65
2022/09/02 01:53:30;;;;;;;6.37;3.30;;;20.60;93.10;;;;;;5102269;27;20226;-65
2022/09/02 01:55:59;;;;;;;4.57;3.00;;;20.60;93.10;;;;;;5086710;27;20705;-65
2022/09/02 01:58:29;;;;;;;9.60;3.37;;;20.60;93.10;;;;;;5103921;27;20208;-65
2022/09/02 02:00:56;;;;;;;3.90;3.10;;;20.50;93.00;;;;;;5108835;28;20251;-65
2022/09/02 02:03:24;;;;;;;6.10;3.33;;;20.50;93.00;;;;;;5084508;27;20203;-65
2022/09/02 02:05:52;;;;;;;4.23;3.37;;;20.60;93.00;;;;;;5085628;27;20211;-65
2022/09/02 02:08:20;;;;;;;6.87;3.53;;;20.50;92.90;;;;;;5102354;27;20674;-65
2022/09/02 02:10:48;;;;;;;3.97;3.20;;;20.50;92.90;;;;;;5101114;28;20207;-65
2022/09/02 02:13:16;;;;;;;4.77;3.00;;;20.50;93.00;;;;;;5081531;28;20236;-65
2022/09/02 02:15:44;;;;;;;4.17;3.50;;;20.50;93.00;;;;;;5116909;27;20189;-65
2022/09/02 02:18:11;;;;;;;7.03;3.80;;;20.50;93.00;;;;;;5101754;27;20231;-65
2022/09/02 02:20:38;;;;;;;5.73;3.80;;;20.50;93.10;;;;;;5103979;27;20207;-65
2022/09/02 02:23:08;;;;;;;3.83;3.53;;;20.50;93.10;;;;;;5078331;27;20319;-65
2022/09/02 02:25:37;;;;;;;8.37;3.93;;;20.50;93.00;;;;;;5104473;27;20200;-65
2022/09/02 02:28:04;;;;;;;4.00;3.70;;;20.40;93.00;;;;;;5097831;28;20207;-65
2022/09/02 02:30:31;;;;;;;4.83;4.33;;;20.40;93.10;;;;;;5100978;27;20221;-65
2022/09/02 02:33:00;;;;;;;6.37;3.90;;;20.40;93.00;;;;;;5089352;28;20238;-65
2022/09/02 02:35:27;;;;;;;4.00;3.60;;;20.50;93.10;;;;;;5105041;28;20212;-65
2022/09/02 02:37:55;;;;;;;9.43;3.67;;;20.40;93.10;;;;;;5099080;27;20211;-65
2022/09/02 02:40:24;;;;;;;4.17;3.77;;;20.40;93.10;;;;;;5087489;28;20221;-66
2022/09/02 02:42:52;;;;;;;7.27;3.83;;;20.40;93.10;;;;;;5091024;27;20268;-65
2022/09/02 02:45:22;;;;;;;8.10;4.30;;;20.40;93.10;;;;;;5104462;28;20214;-65
2022/09/02 02:47:51;;;;;;;3.27;2.97;;;20.40;93.10;;;;;;5105558;27;20215;-65
2022/09/02 02:50:21;;;;;;;4.73;3.47;;;20.40;93.10;;;;;;5109226;27;20636;-65
2022/09/02 02:52:49;;;;;;;3.57;3.27;;;20.30;93.00;;;;;;5097820;28;20275;-65
2022/09/02 02:55:18;;;;;;;5.27;3.90;;;20.30;93.00;;;;;;5100903;27;20241;-65
2022/09/02 02:57:45;;;;;;;3.67;3.37;;;20.30;93.00;;;;;;5099882;28;20212;-65
2022/09/02 03:00:17;;;;;;;6.47;3.80;;;20.20;93.10;;;;;;5099727;28;20757;-65
2022/09/02 03:02:48;;;;;;;4.13;3.57;;;20.20;93.10;;;;;;5119064;27;20302;-65
2022/09/02 03:05:19;;;;;;;4.30;3.90;;;20.20;93.10;;;;;;5089215;27;20214;-65
2022/09/02 03:07:47;;;;;;;4.93;4.30;;;20.20;93.00;;;;;;5088725;27;20236;-65
2022/09/02 03:10:16;;;;;;;6.07;4.20;;;20.10;93.10;;;;;;5099657;27;20216;-65
2022/09/02 03:12:46;;;;;;;4.83;4.17;;;20.20;93.10;;;;;;5117568;27;20383;-65
2022/09/02 03:15:18;;;;;;;9.53;4.33;;;20.10;93.00;;;;;;5103392;27;20213;-65
2022/09/02 03:17:49;;;;;;;4.20;3.80;;;20.10;93.00;;;;;;5097873;27;20212;-68
2022/09/02 03:20:18;;;;;;;4.40;4.00;;;20.10;93.00;;;;;;5060308;28;20206;-65
2022/09/02 03:22:54;;;;;;;4.57;4.10;;;20.10;93.40;;;;;;5077308;28;20220;-65
2022/09/02 03:25:22;;;;;;;7.97;4.87;;;20.00;93.10;;;;;;5083207;28;20292;-65
2022/09/02 03:27:54;;;;;;;10.13;5.03;;;20.00;93.00;;;;;;5084101;28;20300;-65
2022/09/02 03:30:27;;;;;;;5.03;4.53;;;20.00;93.00;;;;;;5081616;28;20269;-65
2022/09/02 03:32:58;;;;;;;6.67;5.27;;;20.00;92.90;;;;;;5083054;28;20261;-65
2022/09/02 03:35:32;;;;;;;5.50;4.77;;;19.90;92.90;;;;;;5073940;28;20202;-65
2022/09/02 03:38:00;;;;;;;7.20;4.57;;;19.90;93.00;;;;;;5075434;28;20212;-65
2022/09/02 03:40:28;;;;;;;7.33;4.30;;;19.90;93.10;;;;;;5093754;28;20247;-65
2022/09/02 03:42:56;;;;;;;4.50;4.10;;;19.90;93.10;;;;;;5087406;28;20208;-65
2022/09/02 03:45:28;;;;;;;9.00;4.50;;;19.90;93.10;;;;;;5077815;28;20211;-65
2022/09/02 03:47:58;;;;;;;5.20;4.60;;;19.90;93.10;;;;;;5080493;28;20270;-65
2022/09/02 03:50:32;;;;;;;8.40;5.60;;;19.90;93.10;;;;;;5083014;28;20257;-65
2022/09/02 03:52:59;;;;;;;7.63;5.77;;;19.80;93.00;;;;;;5078657;28;20226;-65
2022/09/02 03:55:28;;;;;;;7.57;5.00;;;19.80;93.10;;;;;;5087947;28;20285;-65
2022/09/02 03:57:55;;;;;;;5.20;4.60;;;19.80;93.10;;;;;;5096182;28;20883;-65
2022/09/02 04:00:28;;;;;;;7.40;5.63;;;19.80;93.10;;;;;;5075770;28;20269;-65
2022/09/02 04:03:00;;;;;;;10.83;5.10;;;19.80;93.10;;;;;;5073266;28;20209;-65
2022/09/02 04:05:29;;;;;;;5.87;4.83;;;19.80;93.10;;;;;;5077417;28;20231;-65
2022/09/02 04:07:59;;;;;;;5.50;5.00;;;19.80;93.10;;;;;;5082922;28;20600;-65
2022/09/02 04:10:27;;;;;;;7.53;5.60;;;19.70;93.20;;;;;;5074334;28;20254;-65
2022/09/02 04:12:54;;;;;;;5.20;4.80;;;19.70;93.20;;;;;;5080600;28;20233;-65
2022/09/02 04:15:21;;;;;;;7.47;4.90;;;19.70;93.30;;;;;;5082289;28;20866;-65
2022/09/02 04:17:50;;;;;;;8.30;5.60;;;19.70;93.20;;;;;;5075008;28;20689;-65
2022/09/02 04:20:19;;;;;;;5.97;5.37;;;19.70;93.10;;;;;;5076502;28;20211;-65
2022/09/02 04:22:46;;;;;;;6.33;4.70;;;19.70;93.00;;;;;;5067690;28;20207;-65
2022/09/02 04:25:14;;;;;;;8.03;5.20;;;19.70;92.90;;;;;;5066472;28;20205;-65
2022/09/02 04:27:44;;;;;;;6.50;4.77;;;19.70;92.90;;;;;;5073488;28;20193;-65
2022/09/02 04:30:15;;;;;;;5.17;4.77;;;19.70;92.70;;;;;;5079348;28;20231;-65
2022/09/02 04:32:43;;;;;;;7.10;4.50;;;19.70;92.60;;;;;;5078131;28;20219;-65
2022/09/02 04:35:11;;;;;;;5.70;4.77;;;19.70;92.50;;;;;;5083068;28;20643;-65
2022/09/02 04:37:38;;;;;;;6.10;4.57;;;19.70;92.40;;;;;;5082440;28;20230;-65
2022/09/02 04:40:07;;;;;;;6.23;4.83;;;19.70;92.00;;;;;;5076200;28;20209;-65
2022/09/02 04:42:34;;;;;;;7.50;4.93;;;19.70;91.70;;;;;;5063108;28;20201;-65
2022/09/02 04:45:02;;;;;;;5.43;3.93;;;19.70;91.60;;;;;;5075578;28;20807;-65
2022/09/02 04:47:30;;;;;;;9.07;5.10;;;19.70;91.60;;;;;;5073666;28;20204;-65
2022/09/02 04:49:58;;;;;;;5.77;4.67;;;19.70;91.50;;;;;;5081648;28;20202;-65
2022/09/02 04:52:25;;;;;;;6.80;4.93;;;19.70;91.40;;;;;;5076054;28;20205;-65
2022/09/02 04:54:53;;;;;;;8.30;5.23;;;19.70;91.40;;;;;;5063077;28;20243;-65
2022/09/02 04:57:20;;;;;;;7.80;5.00;;;19.70;91.50;;;;;;5078502;28;20211;-65
2022/09/02 04:59:47;;;;;;;9.23;5.30;;;19.80;91.50;;;;;;5079761;28;20197;-65
2022/09/02 05:02:15;;;;;;;6.17;4.97;;;19.80;91.60;;;;;;5080530;28;20644;-65
2022/09/02 05:04:42;;;;;;;5.53;5.03;;;19.80;91.70;;;;;;5079247;28;20211;-65
2022/09/02 05:07:17;;;;;;;9.37;5.30;;;19.80;91.80;;;;;;5064995;28;20515;-65
2022/09/02 05:09:46;;;;;;;7.37;5.37;;;19.90;91.80;;;;;;5076222;28;20226;-65
2022/09/02 05:12:17;;;;;;;7.93;5.03;;;19.90;91.90;;;;;;5075906;28;20300;-65
2022/09/02 05:14:49;;;;;;;5.70;4.77;;;19.90;91.90;;;;;;5074189;28;20229;-65
2022/09/02 05:17:19;;;;;;;5.43;4.93;;;20.00;92.00;;;;;;5080616;28;20220;-65
2022/09/02 05:19:48;;;;;;;9.03;5.53;;;20.00;91.90;;;;;;5099817;28;20291;-65
2022/09/02 05:22:16;;;;;;;7.13;5.73;;;20.00;91.90;;;;;;5109752;27;20260;-66
2022/09/02 05:24:44;;;;;;;5.77;5.27;;;20.10;91.90;;;;;;5116510;27;20194;-65
2022/09/02 05:27:15;;;;;;;9.30;5.50;;;20.10;91.80;;;;;;5116786;27;20263;-65
2022/09/02 05:29:43;;;;;;;9.30;5.53;;;20.10;91.70;;;;;;5087376;28;20211;-65
2022/09/02 05:32:13;;;;;;;6.00;4.87;;;20.20;91.80;;;;;;5099261;28;20548;-65
2022/09/02 05:34:42;;;;;;;5.70;5.13;;;20.30;91.70;;;;;;5102341;28;20605;-65
2022/09/02 05:37:10;;;;;;;6.33;5.10;;;20.30;91.70;;;;;;5105182;27;20537;-65
2022/09/02 05:39:38;;;;;;;8.43;5.10;;;20.40;91.70;;;;;;5103698;28;20641;-65
2022/09/02 05:42:06;;;;;;;6.00;4.90;;;20.50;91.60;;;;;;5109591;27;20207;-65
2022/09/02 05:44:35;;;;;;;5.30;4.80;;;20.50;91.50;;;;;;5109332;27;20642;-65
2022/09/02 05:47:04;;;;;;;8.03;5.37;;;20.60;91.50;;;;;;5106047;27;20620;-65
2022/09/02 05:49:31;;;;;;;5.93;4.97;;;20.70;91.50;;;;;;5101365;27;20634;-65
2022/09/02 05:52:04;;;;;;;7.43;4.97;;;20.80;91.50;;;;;;5098165;28;20219;-65
2022/09/02 05:54:39;;;;;;;6.93;4.93;;;20.90;91.40;;;;;;5114203;27;20565;-65
2022/09/02 05:57:13;;;;;;;6.47;5.27;;;21.10;91.40;;;;;;5107915;27;20219;-65
2022/09/02 06:00:05;;;;;;;7.27;4.50;;;21.20;91.30;;;;;;5091894;27;20291;-65
2022/09/02 06:02:42;;;;;;;6.17;4.13;;;21.50;90.80;;;;;;5118878;27;20602;-65
2022/09/02 06:05:37;;;;;;;5.13;3.90;;;21.70;89.80;;;;;;5111898;27;20218;-65
2022/09/02 06:08:14;;;;;;;5.07;3.93;;;22.00;87.70;;;;;;5106439;27;20303;-65
2022/09/02 06:10:42;;;;;;;7.00;3.53;;;22.40;84.50;;;;;;5102232;28;20204;-65
2022/09/02 06:13:14;;;;;;;3.97;3.60;;;22.70;82.30;;;;;;5101942;27;20289;-65
2022/09/02 06:15:43;;;;;;;6.07;3.93;;;22.90;80.90;;;;;;5099505;27;20242;-66
2022/09/02 06:18:11;;;;;;;3.40;3.10;;;23.10;80.40;;;;;;5101116;27;20232;-65
2022/09/02 06:20:45;;;;;;;3.93;3.60;;;23.10;78.90;;;;;;5106132;27;20239;-65
2022/09/02 06:23:15;;;;;;;6.40;3.70;;;23.10;78.40;;;;;;5109192;27;20280;-65
2022/09/02 06:25:46;;;;;;;5.40;3.60;;;23.00;78.20;;;;;;5091393;27;20212;-65
2022/09/02 06:28:14;;;;;;;5.50;3.07;;;23.00;78.50;;;;;;5105451;27;20243;-65
2022/09/02 06:30:46;;;;;;;3.73;3.30;;;22.90;79.10;;;;;;5099247;28;20211;-65
2022/09/02 06:33:15;;;;;;;4.63;3.70;;;22.80;79.50;;;;;;5085766;27;20205;-65
2022/09/02 06:35:45;;;;;;;4.20;3.10;;;22.80;79.50;;;;;;5118218;27;20220;-65
2022/09/02 06:38:15;;;;;;;4.40;3.40;;;22.70;78.50;;;;;;5097825;28;20621;-65
2022/09/02 06:40:54;;;;;;;4.27;2.93;;;22.80;78.10;;;;;;5115234;27;20581;-65
2022/09/02 06:43:32;;;;;;;6.70;3.70;;;22.80;78.40;;;;;;5087517;27;20229;-66
2022/09/02 06:46:21;;;;;;;3.93;2.90;;;22.90;78.00;;;;;;5106073;27;20312;-65
2022/09/02 06:48:51;;;;;;;8.27;3.10;;;23.00;77.60;;;;;;5086636;27;20224;-65
2022/09/02 06:51:27;;;;;;;4.87;3.30;;;23.10;76.50;;;;;;5102558;27;20298;-65
2022/09/02 06:53:55;;;;;;;13.60;3.30;;;23.20;76.70;;;;;;5091923;27;20701;-65
2022/09/02 06:56:26;;;;;;;2.97;2.77;;;23.20;76.90;;;;;;5097379;27;20227;-65
2022/09/02 06:58:54;;;;;;;6.03;3.10;;;23.40;76.40;;;;;;5088276;27;20646;-66
2022/09/02 07:01:34;;;;;;;12.27;3.30;;;23.40;74.10;;;;;;5118478;27;20200;-65
2022/09/02 07:06:52;;;;;;;5.33;2.87;;;23.50;74.30;;;;;;5105808;27;20222;-65
2022/09/02 07:09:32;;;;;;;3.83;2.87;;;23.60;73.70;;;;;;5103295;27;20298;-65
2022/09/02 07:12:07;;;;;;;4.90;2.97;;;23.70;72.60;;;;;;5101662;27;20207;-65
2022/09/02 07:14:41;;;;;;;6.80;2.80;;;23.70;71.90;;;;;;5105373;27;20219;-65
2022/09/02 07:17:16;;;;;;;4.83;2.93;;;23.70;71.00;;;;;;5099033;27;20227;-65
2022/09/02 07:19:48;;;;;;;6.47;3.40;;;23.70;70.10;;;;;;5102182;28;20228;-65
2022/09/02 07:22:16;;;;;;;5.03;2.60;;;23.70;70.60;;;;;;5087951;28;20202;-65
2022/09/02 07:24:45;;;;;;;5.97;3.20;;;23.80;70.30;;;;;;5097447;28;20302;-65
2022/09/02 07:27:13;;;;;;;3.83;3.27;;;23.80;70.80;;;;;;5103131;28;20213;-66
2022/09/02 07:29:43;;;;;;;8.37;3.63;;;24.00;69.00;;;;;;5100675;28;20204;-65
2022/09/02 07:32:11;;;;;;;5.10;3.40;;;24.00;68.50;;;;;;5101435;28;20209;-65
2022/09/02 07:34:38;;;;;;;6.53;2.90;;;24.00;68.90;;;;;;5101956;28;20220;-65
2022/09/02 07:37:05;;;;;;;4.27;2.90;;;24.00;68.90;;;;;;5100905;28;20255;-65
2022/09/02 07:39:38;;;;;;;4.73;2.93;;;24.10;69.80;;;;;;5108337;27;20657;-65
2022/09/02 07:42:06;;;;;;;2.60;2.30;;;24.20;70.30;;;;;;5094726;28;20195;-65
2022/09/02 07:44:33;;;;;;;4.30;2.83;;;24.30;68.90;;;;;;5097192;28;20261;-65
2022/09/02 07:47:01;;;;;;;4.33;2.57;;;24.40;66.80;;;;;;5105995;27;20201;-65
2022/09/02 07:49:29;;;;;;;4.70;2.43;;;24.40;68.00;;;;;;5093119;28;20262;-65
2022/09/02 07:52:16;;;;;;;4.80;2.90;;;24.50;68.50;;;;;;5104403;28;20209;-65
2022/09/02 07:54:44;;;;;;;7.07;3.07;;;24.60;68.30;;;;;;5102451;28;20227;-66
2022/09/02 07:57:11;;;;;;;4.33;2.80;;;24.70;67.20;;;;;;5077303;28;20206;-65
2022/09/02 07:59:39;;;;;;;3.57;2.30;;;24.80;67.00;;;;;;5101777;28;20243;-66
2022/09/02 08:02:08;;;;;;;5.13;2.47;;;24.90;66.70;;;;;;5098024;28;20263;-65
2022/09/02 08:04:35;;;;;;;2.67;2.17;;;25.00;66.60;;;;;;5108623;27;20208;-66
2022/09/02 08:07:06;;;;;;;3.10;2.20;;;25.10;67.40;;;;;;5108531;27;20694;-66
2022/09/02 08:09:33;;;;;;;2.90;2.33;;;25.30;67.10;;;;;;5101011;28;20205;-65
2022/09/02 08:12:01;;;;;;;6.03;2.00;;;25.40;65.90;;;;;;5101181;28;20244;-66
2022/09/02 08:14:28;;;;;;;3.23;2.07;;;25.60;64.10;;;;;;5110604;27;20225;-65
2022/09/02 08:16:56;;;;;;;4.00;2.23;;;25.70;65.00;;;;;;5101120;28;20208;-65
2022/09/02 08:19:26;;;;;;;9.37;2.57;;;25.70;63.40;;;;;;5114276;27;20700;-65
2022/09/02 08:21:54;;;;;;;3.73;2.60;;;25.80;64.40;;;;;;5116043;27;20211;-65
2022/09/02 08:24:21;;;;;;;3.10;2.23;;;25.90;65.00;;;;;;5117914;27;20280;-65
2022/09/02 08:26:48;;;;;;;5.73;2.30;;;26.00;62.00;;;;;;5117163;27;20198;-66
2022/09/02 08:29:15;;;;;;;3.53;1.90;;;26.10;63.30;;;;;;5109327;28;20256;-66
2022/09/02 08:31:42;;;;;;;4.03;1.73;;;26.20;62.60;;;;;;5114015;27;20207;-66
2022/09/02 08:34:09;;;;;;;5.13;1.80;;;26.30;60.40;;;;;;5098742;28;20209;-66
2022/09/02 08:36:38;;;;;;;4.00;2.10;;;26.20;60.00;;;;;;5102761;28;20198;-66
2022/09/02 08:39:10;;;;;;;2.20;1.90;;;26.20;61.30;;;;;;5122832;28;20286;-66
2022/09/02 08:41:56;;;;;;;11.47;2.10;;;26.30;61.40;;;;;;5112338;28;20194;-66
2022/09/02 08:44:32;;;;;;;2.47;1.80;;;26.40;62.70;;;;;;5117877;28;20227;-66
2022/09/02 08:47:03;;;;;;;4.03;2.17;;;26.50;62.80;;;;;;5116450;28;20520;-66
2022/09/02 08:49:42;;;;;;;4.07;1.90;;;26.70;63.00;;;;;;5117556;28;20559;-66
2022/09/02 08:52:26;;;;;;;6.93;2.20;;;26.90;61.00;;;;;;5118060;28;20627;-66
2022/09/02 08:54:54;;;;;;;1.90;1.60;;;27.10;61.20;;;;;;5110855;28;20215;-66
2022/09/02 08:57:26;;;;;;;2.40;1.40;;;27.20;60.00;;;;;;5119402;27;20191;-66
2022/09/02 08:59:59;;;;;;;5.83;1.97;;;27.30;59.10;;;;;;5106503;27;20214;-66
2022/09/02 09:02:40;;;;;;;7.50;2.60;;;27.40;56.10;;;;;;5120087;27;20245;-66
2022/09/02 09:05:29;;;;;;;3.93;2.00;;;27.30;56.30;;;;;;5123266;27;20499;-66
2022/09/02 09:08:23;;;;;;;3.13;2.07;;;27.30;58.20;;;;;;5127212;27;20663;-66
2022/09/02 09:11:35;;;;;;;3.07;2.37;;;27.40;58.40;;;;;;5093894;27;20547;-66
2022/09/02 09:14:02;;;;;;;2.33;2.10;;;27.50;56.70;;;;;;5102041;28;20318;-67
2022/09/02 09:17:01;;;;;;;2.03;1.70;;;27.60;56.50;;;;;;5116018;27;20207;-67
2022/09/02 09:19:46;;;;;;;5.70;1.43;;;27.60;55.90;;;;;;5119878;27;20583;-69
2022/09/02 09:22:17;;;;;;;5.50;1.60;;;27.60;55.60;;;;;;5119678;27;20650;-67
2022/09/02 09:24:49;;;;;;;4.60;1.83;;;27.50;53.40;;;;;;5106329;27;20626;-68
2022/09/02 09:27:21;;;;;;;3.73;1.53;;;27.50;54.30;;;;;;5117456;27;20203;-67
2022/09/02 09:29:49;;;;;;;2.37;1.53;;;27.50;56.90;;;;;;5120915;27;20219;-67
2022/09/02 09:32:33;;;;;;;2.30;1.80;;;27.50;54.20;;;;;;5096339;28;20197;-67
2022/09/02 09:35:05;;;;;;;4.93;2.07;;;27.60;53.90;;;;;;5097437;27;20777;-68
2022/09/02 09:37:41;;;;;;;2.70;1.43;;;27.60;53.90;;;;;;5114026;27;20201;-67
2022/09/02 09:40:25;;;;;;;2.67;1.50;;;27.60;54.00;;;;;;5119429;27;20628;-67
2022/09/02 09:42:55;;;;;;;3.37;1.33;;;27.70;53.70;;;;;;5105253;27;20641;-68
2022/09/02 09:45:46;;;;;;;1.47;1.37;;;27.70;53.50;;;;;;5126527;27;20309;-67
2022/09/02 09:48:22;;;;;;;4.47;1.87;;;27.80;50.70;;;;;;5102416;27;20325;-67
2022/09/02 09:50:55;;;;;;;1.30;1.10;;;27.80;51.90;;;;;;5120459;27;20676;-67
2022/09/02 09:53:26;;;;;;;1.77;1.40;;;27.90;53.50;;;;;;5114113;27;20208;-67
2022/09/02 09:55:57;;;;;;;2.17;1.50;;;28.00;52.10;;;;;;5099891;28;20223;-67
2022/09/02 09:58:51;;;;;;;4.00;1.57;;;28.00;50.10;;;;;;5123371;27;20206;-67
2022/09/02 10:01:21;;;;;;;5.10;1.53;;;28.00;50.00;;;;;;5117042;27;20671;-67
2022/09/02 10:03:54;;;;;;;1.50;1.40;;;28.00;50.30;;;;;;5116032;27;20203;-68
2022/09/02 10:06:31;;;;;;;2.67;1.30;;;28.10;51.50;;;;;;5122450;27;20589;-67
2022/09/02 10:09:02;;;;;;;2.10;1.50;;;28.20;50.10;;;;;;5102759;27;20279;-67
2022/09/02 10:11:37;;;;;;;2.93;1.60;;;28.30;49.40;;;;;;5120645;27;20534;-68
2022/09/02 10:14:08;;;;;;;7.23;2.03;;;28.40;48.90;;;;;;5119731;27;20271;-68
2022/09/02 10:16:53;;;;;;;4.53;1.30;;;28.50;49.60;;;;;;5114344;27;20202;-67
2022/09/02 10:19:25;;;;;;;1.63;1.30;;;28.50;47.60;;;;;;5083088;27;20236;-68
2022/09/02 10:22:24;;;;;;;4.07;1.27;;;28.40;47.40;;;;;;5102419;27;20298;-68
2022/09/02 10:25:21;;;;;;;2.10;1.43;;;28.40;49.70;;;;;;5118626;27;20208;-68
2022/09/02 10:28:08;;;;;;;1.20;1.10;;;28.40;49.30;;;;;;5087021;27;20203;-70
2022/09/02 10:30:57;;;;;;;2.43;1.50;;;28.60;48.10;;;;;;5098914;28;20532;-68
2022/09/02 10:33:27;;;;;;;1.20;1.07;;;28.70;47.50;;;;;;5120471;27;20292;-68
2022/09/02 10:36:26;;;;;;;2.87;1.10;;;28.80;47.10;;;;;;5098546;28;20773;-68
2022/09/02 10:38:59;;;;;;;2.30;1.27;;;28.90;48.00;;;;;;5101362;28;20208;-68
2022/09/02 10:41:35;;;;;;;4.03;1.30;;;29.10;48.00;;;;;;5117830;27;20284;-69
2022/09/02 10:44:20;;;;;;;1.33;1.17;;;29.20;47.60;;;;;;5115012;27;20515;-69
2022/09/02 10:47:28;;;;;;;1.27;1.17;;;29.30;49.30;;;;;;5117968;27;20282;-69
2022/09/02 10:50:22;;;;;;;2.50;1.60;;;29.30;47.60;;;;;;5104584;27;20199;-68
2022/09/02 10:53:10;;;;;;;3.17;1.80;;;29.30;45.90;;;;;;5122938;27;20203;-70
2022/09/02 10:56:00;;;;;;;1.57;1.40;;;29.20;46.00;;;;;;5121627;27;20652;-68
2022/09/02 10:58:54;;;;;;;7.27;1.67;;;29.10;47.40;;;;;;5104207;27;20204;-69
2022/09/02 11:01:30;;;;;;;3.73;1.70;;;29.10;47.30;;;;;;5082247;28;20585;-69
2022/09/02 11:04:03;;;;;;;2.43;1.50;;;29.00;49.20;;;;;;5098300;28;20204;-69
2022/09/02 11:06:36;;;;;;;1.33;1.20;;;29.00;48.20;;;;;;5120485;27;20195;-68
2022/09/02 11:09:32;;;;;;;6.47;1.60;;;29.10;48.10;;;;;;5115835;27;20203;-68
2022/09/02 11:12:05;;;;;;;3.20;1.27;;;29.10;46.00;;;;;;5119892;27;20245;-68
2022/09/02 11:14:39;;;;;;;1.73;1.47;;;29.20;47.50;;;;;;5124486;27;20502;-68
2022/09/02 11:17:31;;;;;;;2.30;1.60;;;29.20;47.20;;;;;;5117199;27;20203;-68
2022/09/02 11:20:33;;;;;;;3.17;1.43;;;29.30;47.90;;;;;;5099541;27;20232;-69
2022/09/02 11:23:34;;;;;;;5.40;1.53;;;29.30;45.20;;;;;;5114761;27;20216;-69
2022/09/02 11:26:28;;;;;;;3.00;1.60;;;29.20;47.20;;;;;;5081353;27;20218;-69
2022/09/02 11:28:56;;;;;;;2.97;2.10;;;29.20;46.20;;;;;;5098538;27;20266;-69
2022/09/02 11:31:34;;;;;;;2.77;1.43;;;29.10;47.30;;;;;;5119988;27;20243;-68
2022/09/02 11:34:10;;;;;;;2.13;1.40;;;29.10;47.10;;;;;;5090563;27;20266;-69
2022/09/02 11:36:39;;;;;;;4.90;1.80;;;29.10;47.50;;;;;;5116318;27;20303;-69
2022/09/02 11:39:46;;;;;;;3.63;1.73;;;29.10;48.20;;;;;;5120545;27;20195;-69
2022/09/02 11:43:02;;;;;;;4.37;1.90;;;29.10;47.20;;;;;;5114949;27;20206;-69
2022/09/02 11:46:06;;;;;;;3.10;1.40;;;29.10;46.90;;;;;;5097630;28;20204;-69
2022/09/02 11:48:52;;;;;;;2.10;1.60;;;29.10;47.40;;;;;;5100781;27;20302;-69
2022/09/02 11:51:54;;;;;;;3.10;1.77;;;29.10;48.50;;;;;;5110734;27;20204;-69
2022/09/02 11:54:25;;;;;;;4.90;1.87;;;29.30;47.80;;;;;;5109666;27;20219;-69
2022/09/02 11:56:58;;;;;;;3.23;1.90;;;29.30;47.90;;;;;;5100535;27;20200;-69
2022/09/02 11:59:50;;;;;;;4.10;1.83;;;29.40;48.30;;;;;;5118463;27;20200;-69
2022/09/02 12:02:50;;;;;;;2.27;1.50;;;29.40;46.50;;;;;;5114768;27;20606;-69
2022/09/02 12:05:28;;;;;;;1.60;1.50;;;29.40;47.60;;;;;;5100338;28;20215;-69
2022/09/02 12:08:04;;;;;;;4.23;2.10;;;29.50;48.70;;;;;;5113877;27;20660;-69
2022/09/02 12:10:41;;;;;;;1.53;1.40;;;29.50;47.20;;;;;;5113489;27;20203;-69
2022/09/02 12:13:28;;;;;;;3.07;1.70;;;29.50;44.70;;;;;;5118207;27;20229;-69
2022/09/02 12:16:22;;;;;;;1.50;1.37;;;29.40;46.00;;;;;;5090315;28;20228;-69
2022/09/02 12:18:59;;;;;;;2.67;1.87;;;29.40;46.30;;;;;;5083526;28;20293;-69
2022/09/02 12:21:28;;;;;;;3.97;1.63;;;29.40;47.20;;;;;;5101916;28;20853;-69
2022/09/02 12:23:56;;;;;;;4.60;1.70;;;29.40;47.20;;;;;;5105183;28;20681;-69
2022/09/02 12:26:27;;;;;;;1.70;1.60;;;29.40;48.30;;;;;;5119488;27;20282;-69
2022/09/02 12:29:10;;;;;;;2.33;1.73;;;29.40;46.00;;;;;;5089671;27;20524;-69
2022/09/02 12:31:43;;;;;;;4.10;1.73;;;29.30;46.80;;;;;;5071743;28;20217;-69
2022/09/02 12:34:19;;;;;;;1.77;1.67;;;29.30;46.90;;;;;;5083142;28;20197;-69
2022/09/02 12:36:50;;;;;;;3.80;2.03;;;29.20;45.20;;;;;;5102460;28;20235;-70
2022/09/02 12:39:24;;;;;;;4.60;1.70;;;29.10;45.60;;;;;;5104495;28;20229;-69
2022/09/02 12:42:06;;;;;;;2.07;1.70;;;29.10;47.00;;;;;;5122970;28;20270;-69
2022/09/02 12:44:40;;;;;;;3.00;2.10;;;29.10;47.80;;;;;;5117489;28;20256;-69
2022/09/02 12:47:23;;;;;;;3.20;1.60;;;29.10;46.20;;;;;;5117084;28;20530;-70
2022/09/02 12:50:25;;;;;;;2.43;1.60;;;29.10;48.10;;;;;;5114913;28;20199;-69
2022/09/02 12:53:13;;;;;;;3.73;1.50;;;29.10;47.40;;;;;;5115391;28;20196;-69
2022/09/02 12:56:12;;;;;;;2.10;1.70;;;29.10;47.10;;;;;;5119324;28;20206;-70
2022/09/02 12:58:46;;;;;;;4.00;1.67;;;29.10;46.70;;;;;;5084292;28;20287;-69
2022/09/02 13:01:13;;;;;;;3.17;1.80;;;29.20;46.80;;;;;;5114653;28;20196;-69
2022/09/02 13:04:18;;;;;;;3.87;1.87;;;29.10;46.20;;;;;;5104780;28;20191;-69
2022/09/02 13:07:07;;;;;;;4.27;1.53;;;29.10;46.60;;;;;;5033169;28;20243;-70
2022/09/02 13:09:53;;;;;;;2.27;1.70;;;29.20;47.80;;;;;;5105643;28;20637;-69
2022/09/02 13:12:42;;;;;;;4.47;2.37;;;29.30;47.20;;;;;;5112652;28;20835;-70
2022/09/02 13:15:12;;;;;;;1.90;1.70;;;29.30;46.90;;;;;;5076137;28;20643;-70
2022/09/02 13:18:07;;;;;;;2.57;1.80;;;29.40;47.30;;;;;;5083380;28;20189;-70
2022/09/02 13:21:13;;;;;;;3.13;1.57;;;29.50;47.00;;;;;;5119395;28;20201;-70
2022/09/02 13:24:04;;;;;;;2.70;1.60;;;29.50;46.00;;;;;;5067102;28;20290;-70